sensor_id;sensor_type;location;lat;lon;timestamp;P1;durP1;ratioP1;P2;durP2;ratioP2
48805;SDS011;34625;47.176;27.548;2023-07-20T00:02:16;4.65;;;3.97;;
48805;SDS011;34625;47.176;27.548;2023-07-20T00:04:42;5.63;;;3.47;;
48805;SDS011;34625;47.176;27.548;2023-07-20T00:07:08;4.72;;;3.58;;
48805;SDS011;34625;47.176;27.548;2023-07-20T00:09:33;4.40;;;3.50;;
48805;SDS011;34625;47.176;27.548;2023-07-20T00:12:00;6.47;;;3.83;;
48805;SDS011;34625;47.176;27.548;2023-07-20T00:14:26;4.85;;;3.33;;
48805;SDS011;34625;47.176;27.548;2023-07-20T00:16:52;4.97;;;3.75;;
48805;SDS011;34625;47.176;27.548;2023-07-20T00:19:24;3.30;;;2.72;;
48805;SDS011;34625;47.176;27.548;2023-07-20T00:21:52;3.42;;;2.85;;
48805;SDS011;34625;47.176;27.548;2023-07-20T00:24:18;4.57;;;3.60;;
48805;SDS011;34625;47.176;27.548;2023-07-20T00:26:44;4.05;;;3.03;;
48805;SDS011;34625;47.176;27.548;2023-07-20T00:29:11;3.53;;;3.22;;
48805;SDS011;34625;47.176;27.548;2023-07-20T00:31:39;5.43;;;3.50;;
48805;SDS011;34625;47.176;27.548;2023-07-20T00:34:05;5.00;;;3.35;;
48805;SDS011;34625;47.176;27.548;2023-07-20T00:36:33;3.35;;;3.05;;
48805;SDS011;34625;47.176;27.548;2023-07-20T00:39:01;3.53;;;3.22;;
48805;SDS011;34625;47.176;27.548;2023-07-20T00:41:28;3.67;;;3.10;;
48805;SDS011;34625;47.176;27.548;2023-07-20T00:43:55;9.15;;;2.58;;
48805;SDS011;34625;47.176;27.548;2023-07-20T00:46:24;3.05;;;2.70;;
48805;SDS011;34625;47.176;27.548;2023-07-20T00:48:50;4.00;;;3.30;;
48805;SDS011;34625;47.176;27.548;2023-07-20T00:51:18;3.35;;;3.05;;
48805;SDS011;34625;47.176;27.548;2023-07-20T00:53:45;3.17;;;2.80;;
48805;SDS011;34625;47.176;27.548;2023-07-20T00:56:11;4.78;;;2.58;;
48805;SDS011;34625;47.176;27.548;2023-07-20T00:58:37;3.25;;;2.78;;
48805;SDS011;34625;47.176;27.548;2023-07-20T01:01:03;5.25;;;3.90;;
48805;SDS011;34625;47.176;27.548;2023-07-20T01:03:29;4.28;;;3.10;;
48805;SDS011;34625;47.176;27.548;2023-07-20T01:08:53;4.10;;;3.10;;
48805;SDS011;34625;47.176;27.548;2023-07-20T01:14:03;3.95;;;2.70;;
48805;SDS011;34625;47.176;27.548;2023-07-20T01:16:30;4.00;;;3.05;;
48805;SDS011;34625;47.176;27.548;2023-07-20T01:18:57;3.80;;;3.28;;
48805;SDS011;34625;47.176;27.548;2023-07-20T01:21:31;3.13;;;2.92;;
48805;SDS011;34625;47.176;27.548;2023-07-20T01:32:39;3.88;;;3.20;;
48805;SDS011;34625;47.176;27.548;2023-07-20T01:35:08;3.95;;;3.03;;
48805;SDS011;34625;47.176;27.548;2023-07-20T01:37:40;5.15;;;3.63;;
48805;SDS011;34625;47.176;27.548;2023-07-20T01:40:11;3.50;;;3.20;;
48805;SDS011;34625;47.176;27.548;2023-07-20T01:42:43;4.70;;;3.47;;
48805;SDS011;34625;47.176;27.548;2023-07-20T01:45:11;3.88;;;3.05;;
48805;SDS011;34625;47.176;27.548;2023-07-20T01:47:37;4.25;;;3.28;;
48805;SDS011;34625;47.176;27.548;2023-07-20T01:50:03;6.95;;;3.42;;
48805;SDS011;34625;47.176;27.548;2023-07-20T01:52:30;3.13;;;2.83;;
48805;SDS011;34625;47.176;27.548;2023-07-20T01:54:56;3.40;;;2.92;;
48805;SDS011;34625;47.176;27.548;2023-07-20T01:57:22;2.95;;;2.65;;
48805;SDS011;34625;47.176;27.548;2023-07-20T01:59:48;3.47;;;2.70;;
48805;SDS011;34625;47.176;27.548;2023-07-20T02:02:14;4.97;;;3.47;;
48805;SDS011;34625;47.176;27.548;2023-07-20T02:04:40;3.00;;;2.58;;
48805;SDS011;34625;47.176;27.548;2023-07-20T02:07:06;4.20;;;3.10;;
48805;SDS011;34625;47.176;27.548;2023-07-20T02:09:32;3.40;;;3.00;;
48805;SDS011;34625;47.176;27.548;2023-07-20T02:11:58;3.60;;;2.53;;
48805;SDS011;34625;47.176;27.548;2023-07-20T02:14:24;2.78;;;2.58;;
48805;SDS011;34625;47.176;27.548;2023-07-20T02:16:51;4.93;;;3.25;;
48805;SDS011;34625;47.176;27.548;2023-07-20T02:19:19;3.25;;;2.95;;
48805;SDS011;34625;47.176;27.548;2023-07-20T02:21:46;5.15;;;3.42;;
48805;SDS011;34625;47.176;27.548;2023-07-20T02:24:12;3.47;;;2.70;;
48805;SDS011;34625;47.176;27.548;2023-07-20T02:26:38;3.15;;;2.45;;
48805;SDS011;34625;47.176;27.548;2023-07-20T02:29:04;3.33;;;2.53;;
48805;SDS011;34625;47.176;27.548;2023-07-20T02:31:30;4.68;;;2.90;;
48805;SDS011;34625;47.176;27.548;2023-07-20T02:33:56;6.63;;;3.28;;
48805;SDS011;34625;47.176;27.548;2023-07-20T02:36:22;3.33;;;3.03;;
48805;SDS011;34625;47.176;27.548;2023-07-20T02:38:49;4.15;;;2.67;;
48805;SDS011;34625;47.176;27.548;2023-07-20T02:41:15;3.78;;;2.97;;
48805;SDS011;34625;47.176;27.548;2023-07-20T02:43:41;3.17;;;2.78;;
48805;SDS011;34625;47.176;27.548;2023-07-20T02:46:07;3.95;;;3.17;;
48805;SDS011;34625;47.176;27.548;2023-07-20T02:48:33;3.70;;;3.05;;
48805;SDS011;34625;47.176;27.548;2023-07-20T02:51:00;4.65;;;3.00;;
48805;SDS011;34625;47.176;27.548;2023-07-20T02:53:26;4.20;;;3.50;;
48805;SDS011;34625;47.176;27.548;2023-07-20T02:55:52;3.00;;;2.50;;
48805;SDS011;34625;47.176;27.548;2023-07-20T02:58:19;3.25;;;2.40;;
48805;SDS011;34625;47.176;27.548;2023-07-20T03:00:44;4.10;;;3.00;;
48805;SDS011;34625;47.176;27.548;2023-07-20T03:03:10;4.78;;;2.75;;
48805;SDS011;34625;47.176;27.548;2023-07-20T03:05:36;3.08;;;2.40;;
48805;SDS011;34625;47.176;27.548;2023-07-20T03:08:05;4.00;;;3.20;;
48805;SDS011;34625;47.176;27.548;2023-07-20T03:10:32;3.72;;;3.05;;
48805;SDS011;34625;47.176;27.548;2023-07-20T03:12:58;3.42;;;2.92;;
48805;SDS011;34625;47.176;27.548;2023-07-20T03:15:24;5.88;;;3.30;;
48805;SDS011;34625;47.176;27.548;2023-07-20T03:17:50;3.45;;;3.03;;
48805;SDS011;34625;47.176;27.548;2023-07-20T03:20:17;6.65;;;3.00;;
48805;SDS011;34625;47.176;27.548;2023-07-20T03:22:43;3.58;;;2.95;;
48805;SDS011;34625;47.176;27.548;2023-07-20T03:25:09;3.60;;;2.88;;
48805;SDS011;34625;47.176;27.548;2023-07-20T03:27:35;4.35;;;2.88;;
48805;SDS011;34625;47.176;27.548;2023-07-20T03:30:01;3.65;;;2.65;;
48805;SDS011;34625;47.176;27.548;2023-07-20T03:32:28;2.90;;;2.50;;
48805;SDS011;34625;47.176;27.548;2023-07-20T03:34:54;3.97;;;3.05;;
48805;SDS011;34625;47.176;27.548;2023-07-20T03:37:20;3.05;;;2.75;;
48805;SDS011;34625;47.176;27.548;2023-07-20T03:39:46;3.28;;;2.60;;
48805;SDS011;34625;47.176;27.548;2023-07-20T03:42:12;3.70;;;2.80;;
48805;SDS011;34625;47.176;27.548;2023-07-20T03:44:38;2.70;;;2.50;;
48805;SDS011;34625;47.176;27.548;2023-07-20T03:47:07;3.40;;;3.05;;
48805;SDS011;34625;47.176;27.548;2023-07-20T03:49:33;5.28;;;3.05;;
48805;SDS011;34625;47.176;27.548;2023-07-20T03:51:59;4.75;;;3.08;;
48805;SDS011;34625;47.176;27.548;2023-07-20T03:54:25;8.57;;;4.05;;
48805;SDS011;34625;47.176;27.548;2023-07-20T03:56:51;3.50;;;2.58;;
48805;SDS011;34625;47.176;27.548;2023-07-20T03:59:17;4.57;;;2.75;;
48805;SDS011;34625;47.176;27.548;2023-07-20T04:01:43;3.67;;;3.13;;
48805;SDS011;34625;47.176;27.548;2023-07-20T04:04:10;4.20;;;3.38;;
48805;SDS011;34625;47.176;27.548;2023-07-20T04:06:36;7.10;;;3.22;;
48805;SDS011;34625;47.176;27.548;2023-07-20T04:09:02;4.80;;;3.55;;
48805;SDS011;34625;47.176;27.548;2023-07-20T04:11:30;3.35;;;3.05;;
48805;SDS011;34625;47.176;27.548;2023-07-20T04:13:56;6.18;;;3.70;;
48805;SDS011;34625;47.176;27.548;2023-07-20T04:16:22;7.82;;;3.80;;
48805;SDS011;34625;47.176;27.548;2023-07-20T04:18:48;5.53;;;3.72;;
48805;SDS011;34625;47.176;27.548;2023-07-20T04:21:14;9.10;;;4.65;;
48805;SDS011;34625;47.176;27.548;2023-07-20T04:23:40;7.10;;;5.45;;
48805;SDS011;34625;47.176;27.548;2023-07-20T04:26:07;7.13;;;4.63;;
48805;SDS011;34625;47.176;27.548;2023-07-20T04:28:33;7.55;;;4.43;;
48805;SDS011;34625;47.176;27.548;2023-07-20T04:31:09;5.38;;;3.90;;
48805;SDS011;34625;47.176;27.548;2023-07-20T04:33:39;6.38;;;3.78;;
48805;SDS011;34625;47.176;27.548;2023-07-20T04:36:06;5.75;;;4.38;;
48805;SDS011;34625;47.176;27.548;2023-07-20T04:38:34;5.20;;;3.10;;
48805;SDS011;34625;47.176;27.548;2023-07-20T04:41:14;3.75;;;3.15;;
48805;SDS011;34625;47.176;27.548;2023-07-20T04:43:43;5.75;;;3.20;;
48805;SDS011;34625;47.176;27.548;2023-07-20T04:46:11;6.05;;;4.28;;
48805;SDS011;34625;47.176;27.548;2023-07-20T04:48:38;6.88;;;3.70;;
48805;SDS011;34625;47.176;27.548;2023-07-20T04:51:05;3.20;;;2.83;;
48805;SDS011;34625;47.176;27.548;2023-07-20T04:53:32;5.07;;;3.75;;
48805;SDS011;34625;47.176;27.548;2023-07-20T04:55:58;3.42;;;3.10;;
48805;SDS011;34625;47.176;27.548;2023-07-20T04:58:24;4.28;;;3.55;;
48805;SDS011;34625;47.176;27.548;2023-07-20T05:00:52;5.97;;;3.45;;
48805;SDS011;34625;47.176;27.548;2023-07-20T05:03:19;3.95;;;3.40;;
48805;SDS011;34625;47.176;27.548;2023-07-20T05:05:48;6.40;;;3.80;;
48805;SDS011;34625;47.176;27.548;2023-07-20T05:08:14;4.72;;;3.25;;
48805;SDS011;34625;47.176;27.548;2023-07-20T05:10:42;4.78;;;3.65;;
48805;SDS011;34625;47.176;27.548;2023-07-20T05:13:08;5.45;;;4.10;;
48805;SDS011;34625;47.176;27.548;2023-07-20T05:15:34;5.18;;;3.65;;
48805;SDS011;34625;47.176;27.548;2023-07-20T05:18:02;5.07;;;4.22;;
48805;SDS011;34625;47.176;27.548;2023-07-20T05:20:28;6.22;;;3.20;;
48805;SDS011;34625;47.176;27.548;2023-07-20T05:22:54;3.83;;;3.13;;
48805;SDS011;34625;47.176;27.548;2023-07-20T05:25:20;5.68;;;3.92;;
48805;SDS011;34625;47.176;27.548;2023-07-20T05:27:48;4.75;;;3.45;;
48805;SDS011;34625;47.176;27.548;2023-07-20T05:30:14;4.80;;;3.78;;
48805;SDS011;34625;47.176;27.548;2023-07-20T05:32:40;5.68;;;4.28;;
48805;SDS011;34625;47.176;27.548;2023-07-20T05:35:06;4.20;;;3.78;;
48805;SDS011;34625;47.176;27.548;2023-07-20T05:37:33;4.88;;;3.47;;
48805;SDS011;34625;47.176;27.548;2023-07-20T05:39:59;5.35;;;4.65;;
48805;SDS011;34625;47.176;27.548;2023-07-20T05:42:25;7.32;;;3.85;;
48805;SDS011;34625;47.176;27.548;2023-07-20T05:44:51;6.32;;;3.80;;
48805;SDS011;34625;47.176;27.548;2023-07-20T05:47:19;5.18;;;3.88;;
48805;SDS011;34625;47.176;27.548;2023-07-20T05:49:45;4.32;;;3.75;;
48805;SDS011;34625;47.176;27.548;2023-07-20T05:52:11;7.15;;;4.25;;
48805;SDS011;34625;47.176;27.548;2023-07-20T05:54:37;4.63;;;4.13;;
48805;SDS011;34625;47.176;27.548;2023-07-20T05:57:03;6.63;;;3.50;;
48805;SDS011;34625;47.176;27.548;2023-07-20T05:59:29;4.60;;;3.78;;
48805;SDS011;34625;47.176;27.548;2023-07-20T06:01:56;5.40;;;3.20;;
48805;SDS011;34625;47.176;27.548;2023-07-20T06:04:22;5.32;;;3.45;;
48805;SDS011;34625;47.176;27.548;2023-07-20T06:06:48;6.25;;;3.65;;
48805;SDS011;34625;47.176;27.548;2023-07-20T06:09:14;6.97;;;3.85;;
48805;SDS011;34625;47.176;27.548;2023-07-20T06:11:40;5.68;;;3.80;;
48805;SDS011;34625;47.176;27.548;2023-07-20T06:14:06;6.50;;;4.97;;
48805;SDS011;34625;47.176;27.548;2023-07-20T06:16:32;4.32;;;3.78;;
48805;SDS011;34625;47.176;27.548;2023-07-20T06:19:00;5.10;;;4.13;;
48805;SDS011;34625;47.176;27.548;2023-07-20T06:21:26;7.65;;;5.65;;
48805;SDS011;34625;47.176;27.548;2023-07-20T06:23:52;8.25;;;4.53;;
48805;SDS011;34625;47.176;27.548;2023-07-20T06:26:18;6.88;;;4.10;;
48805;SDS011;34625;47.176;27.548;2023-07-20T06:28:45;5.03;;;3.50;;
48805;SDS011;34625;47.176;27.548;2023-07-20T06:31:11;6.47;;;3.97;;
48805;SDS011;34625;47.176;27.548;2023-07-20T06:33:37;7.05;;;4.22;;
48805;SDS011;34625;47.176;27.548;2023-07-20T06:36:03;6.72;;;4.25;;
48805;SDS011;34625;47.176;27.548;2023-07-20T06:38:29;6.40;;;4.25;;
48805;SDS011;34625;47.176;27.548;2023-07-20T06:40:55;5.15;;;3.92;;
48805;SDS011;34625;47.176;27.548;2023-07-20T06:43:21;6.95;;;4.28;;
48805;SDS011;34625;47.176;27.548;2023-07-20T06:45:53;8.82;;;3.63;;
48805;SDS011;34625;47.176;27.548;2023-07-20T06:50:46;6.38;;;3.83;;
48805;SDS011;34625;47.176;27.548;2023-07-20T06:53:12;5.43;;;3.70;;
48805;SDS011;34625;47.176;27.548;2023-07-20T06:55:38;6.57;;;3.90;;
48805;SDS011;34625;47.176;27.548;2023-07-20T06:58:04;4.47;;;3.75;;
48805;SDS011;34625;47.176;27.548;2023-07-20T07:00:30;4.78;;;3.65;;
48805;SDS011;34625;47.176;27.548;2023-07-20T07:02:56;4.90;;;3.92;;
48805;SDS011;34625;47.176;27.548;2023-07-20T07:05:22;3.95;;;3.58;;
48805;SDS011;34625;47.176;27.548;2023-07-20T07:07:48;4.75;;;4.32;;
48805;SDS011;34625;47.176;27.548;2023-07-20T07:10:14;4.25;;;3.40;;
48805;SDS011;34625;47.176;27.548;2023-07-20T07:12:40;5.68;;;3.50;;
48805;SDS011;34625;47.176;27.548;2023-07-20T07:15:06;4.53;;;3.70;;
48805;SDS011;34625;47.176;27.548;2023-07-20T07:17:33;6.10;;;3.72;;
48805;SDS011;34625;47.176;27.548;2023-07-20T07:20:00;5.32;;;4.28;;
48805;SDS011;34625;47.176;27.548;2023-07-20T07:22:26;4.18;;;3.55;;
48805;SDS011;34625;47.176;27.548;2023-07-20T07:24:52;6.88;;;4.05;;
48805;SDS011;34625;47.176;27.548;2023-07-20T07:27:19;4.65;;;4.00;;
48805;SDS011;34625;47.176;27.548;2023-07-20T07:29:45;4.18;;;3.78;;
48805;SDS011;34625;47.176;27.548;2023-07-20T07:32:11;6.53;;;4.18;;
48805;SDS011;34625;47.176;27.548;2023-07-20T07:34:38;4.85;;;3.85;;
48805;SDS011;34625;47.176;27.548;2023-07-20T07:37:04;4.65;;;3.65;;
48805;SDS011;34625;47.176;27.548;2023-07-20T07:39:31;4.03;;;3.63;;
48805;SDS011;34625;47.176;27.548;2023-07-20T07:41:57;4.35;;;3.53;;
48805;SDS011;34625;47.176;27.548;2023-07-20T07:44:23;6.80;;;4.15;;
48805;SDS011;34625;47.176;27.548;2023-07-20T07:46:49;3.83;;;3.42;;
48805;SDS011;34625;47.176;27.548;2023-07-20T07:49:16;3.88;;;3.58;;
48805;SDS011;34625;47.176;27.548;2023-07-20T07:51:43;4.95;;;3.47;;
48805;SDS011;34625;47.176;27.548;2023-07-20T07:54:10;4.72;;;3.80;;
48805;SDS011;34625;47.176;27.548;2023-07-20T07:56:36;4.30;;;3.75;;
48805;SDS011;34625;47.176;27.548;2023-07-20T07:59:02;4.20;;;3.60;;
48805;SDS011;34625;47.176;27.548;2023-07-20T08:01:28;4.25;;;3.35;;
48805;SDS011;34625;47.176;27.548;2023-07-20T08:03:55;5.00;;;3.83;;
48805;SDS011;34625;47.176;27.548;2023-07-20T08:06:21;6.47;;;4.07;;
48805;SDS011;34625;47.176;27.548;2023-07-20T08:08:49;3.83;;;3.25;;
48805;SDS011;34625;47.176;27.548;2023-07-20T08:11:15;4.57;;;3.90;;
48805;SDS011;34625;47.176;27.548;2023-07-20T08:13:43;7.55;;;4.13;;
48805;SDS011;34625;47.176;27.548;2023-07-20T08:16:09;5.88;;;3.40;;
48805;SDS011;34625;47.176;27.548;2023-07-20T08:18:35;4.10;;;3.70;;
48805;SDS011;34625;47.176;27.548;2023-07-20T08:21:01;4.45;;;3.38;;
48805;SDS011;34625;47.176;27.548;2023-07-20T08:23:27;4.60;;;3.53;;
48805;SDS011;34625;47.176;27.548;2023-07-20T08:25:53;3.97;;;3.28;;
48805;SDS011;34625;47.176;27.548;2023-07-20T08:28:19;4.32;;;3.55;;
48805;SDS011;34625;47.176;27.548;2023-07-20T08:30:46;9.27;;;3.90;;
48805;SDS011;34625;47.176;27.548;2023-07-20T08:33:13;11.00;;;5.50;;
48805;SDS011;34625;47.176;27.548;2023-07-20T08:35:41;4.85;;;4.30;;
48805;SDS011;34625;47.176;27.548;2023-07-20T08:38:08;6.85;;;3.72;;
48805;SDS011;34625;47.176;27.548;2023-07-20T08:40:39;7.05;;;4.38;;
48805;SDS011;34625;47.176;27.548;2023-07-20T08:43:10;7.45;;;4.43;;
48805;SDS011;34625;47.176;27.548;2023-07-20T08:45:38;4.82;;;3.65;;
48805;SDS011;34625;47.176;27.548;2023-07-20T08:48:06;7.85;;;3.83;;
48805;SDS011;34625;47.176;27.548;2023-07-20T08:50:33;8.68;;;4.22;;
48805;SDS011;34625;47.176;27.548;2023-07-20T08:53:00;7.65;;;3.70;;
48805;SDS011;34625;47.176;27.548;2023-07-20T08:55:28;5.78;;;3.50;;
48805;SDS011;34625;47.176;27.548;2023-07-20T08:57:55;6.97;;;3.70;;
48805;SDS011;34625;47.176;27.548;2023-07-20T09:00:22;3.60;;;2.78;;
48805;SDS011;34625;47.176;27.548;2023-07-20T09:02:50;4.28;;;3.42;;
48805;SDS011;34625;47.176;27.548;2023-07-20T09:05:18;4.95;;;3.70;;
48805;SDS011;34625;47.176;27.548;2023-07-20T09:07:45;16.42;;;3.53;;
48805;SDS011;34625;47.176;27.548;2023-07-20T09:10:11;8.52;;;3.40;;
48805;SDS011;34625;47.176;27.548;2023-07-20T09:12:38;6.07;;;2.63;;
48805;SDS011;34625;47.176;27.548;2023-07-20T09:15:06;4.03;;;2.90;;
48805;SDS011;34625;47.176;27.548;2023-07-20T09:17:33;5.35;;;2.83;;
48805;SDS011;34625;47.176;27.548;2023-07-20T09:20:02;5.90;;;2.92;;
48805;SDS011;34625;47.176;27.548;2023-07-20T09:22:33;8.50;;;3.47;;
48805;SDS011;34625;47.176;27.548;2023-07-20T09:25:00;5.57;;;3.72;;
48805;SDS011;34625;47.176;27.548;2023-07-20T09:27:38;7.90;;;3.47;;
48805;SDS011;34625;47.176;27.548;2023-07-20T09:30:06;5.68;;;3.85;;
48805;SDS011;34625;47.176;27.548;2023-07-20T09:35:19;4.50;;;3.72;;
48805;SDS011;34625;47.176;27.548;2023-07-20T09:37:48;4.88;;;3.10;;
48805;SDS011;34625;47.176;27.548;2023-07-20T09:40:18;3.63;;;3.30;;
48805;SDS011;34625;47.176;27.548;2023-07-20T09:42:44;4.30;;;3.53;;
48805;SDS011;34625;47.176;27.548;2023-07-20T09:45:11;4.75;;;3.58;;
48805;SDS011;34625;47.176;27.548;2023-07-20T09:47:39;3.83;;;3.30;;
48805;SDS011;34625;47.176;27.548;2023-07-20T09:50:06;4.05;;;3.13;;
48805;SDS011;34625;47.176;27.548;2023-07-20T09:52:39;7.53;;;3.97;;
48805;SDS011;34625;47.176;27.548;2023-07-20T09:55:10;4.82;;;3.80;;
48805;SDS011;34625;47.176;27.548;2023-07-20T09:57:39;6.57;;;4.30;;
48805;SDS011;34625;47.176;27.548;2023-07-20T10:00:06;4.95;;;4.15;;
48805;SDS011;34625;47.176;27.548;2023-07-20T10:02:43;7.72;;;4.35;;
48805;SDS011;34625;47.176;27.548;2023-07-20T10:05:13;7.35;;;4.43;;
48805;SDS011;34625;47.176;27.548;2023-07-20T10:07:50;4.20;;;3.63;;
48805;SDS011;34625;47.176;27.548;2023-07-20T10:10:18;3.85;;;3.45;;
48805;SDS011;34625;47.176;27.548;2023-07-20T10:12:46;4.85;;;4.25;;
48805;SDS011;34625;47.176;27.548;2023-07-20T10:15:24;7.55;;;4.28;;
48805;SDS011;34625;47.176;27.548;2023-07-20T10:18:12;13.63;;;4.65;;
48805;SDS011;34625;47.176;27.548;2023-07-20T10:20:48;7.72;;;3.72;;
48805;SDS011;34625;47.176;27.548;2023-07-20T10:23:17;5.32;;;3.55;;
48805;SDS011;34625;47.176;27.548;2023-07-20T10:25:43;5.97;;;3.90;;
48805;SDS011;34625;47.176;27.548;2023-07-20T10:28:11;5.90;;;3.55;;
48805;SDS011;34625;47.176;27.548;2023-07-20T10:30:37;12.05;;;3.88;;
48805;SDS011;34625;47.176;27.548;2023-07-20T10:33:04;5.97;;;4.80;;
48805;SDS011;34625;47.176;27.548;2023-07-20T10:35:31;6.00;;;4.43;;
48805;SDS011;34625;47.176;27.548;2023-07-20T10:38:20;7.03;;;4.18;;
48805;SDS011;34625;47.176;27.548;2023-07-20T10:41:03;7.35;;;4.47;;
48805;SDS011;34625;47.176;27.548;2023-07-20T10:43:29;6.35;;;3.28;;
48805;SDS011;34625;47.176;27.548;2023-07-20T10:45:55;8.30;;;4.20;;
48805;SDS011;34625;47.176;27.548;2023-07-20T10:48:24;4.85;;;3.75;;
48805;SDS011;34625;47.176;27.548;2023-07-20T10:53:37;4.97;;;3.30;;
48805;SDS011;34625;47.176;27.548;2023-07-20T10:56:21;4.50;;;3.28;;
48805;SDS011;34625;47.176;27.548;2023-07-20T10:58:48;4.22;;;2.80;;
48805;SDS011;34625;47.176;27.548;2023-07-20T11:01:17;6.38;;;2.72;;
48805;SDS011;34625;47.176;27.548;2023-07-20T11:03:43;4.43;;;3.05;;
48805;SDS011;34625;47.176;27.548;2023-07-20T11:09:12;4.35;;;2.60;;
48805;SDS011;34625;47.176;27.548;2023-07-20T11:11:43;7.05;;;3.17;;
48805;SDS011;34625;47.176;27.548;2023-07-20T11:14:22;2.63;;;2.30;;
48805;SDS011;34625;47.176;27.548;2023-07-20T11:16:50;3.28;;;2.70;;
48805;SDS011;34625;47.176;27.548;2023-07-20T11:19:21;4.70;;;2.65;;
48805;SDS011;34625;47.176;27.548;2023-07-20T11:21:52;5.40;;;2.83;;
48805;SDS011;34625;47.176;27.548;2023-07-20T11:24:19;7.68;;;2.83;;
48805;SDS011;34625;47.176;27.548;2023-07-20T11:26:49;3.03;;;2.58;;
48805;SDS011;34625;47.176;27.548;2023-07-20T11:29:16;4.22;;;3.10;;
48805;SDS011;34625;47.176;27.548;2023-07-20T11:31:44;4.20;;;2.30;;
48805;SDS011;34625;47.176;27.548;2023-07-20T11:34:11;2.78;;;2.15;;
48805;SDS011;34625;47.176;27.548;2023-07-20T11:36:43;4.17;;;2.97;;
48805;SDS011;34625;47.176;27.548;2023-07-20T11:39:11;4.55;;;2.72;;
48805;SDS011;34625;47.176;27.548;2023-07-20T11:41:47;2.25;;;2.03;;
48805;SDS011;34625;47.176;27.548;2023-07-20T11:44:21;2.60;;;2.40;;
48805;SDS011;34625;47.176;27.548;2023-07-20T11:49:38;2.47;;;2.17;;
48805;SDS011;34625;47.176;27.548;2023-07-20T11:52:06;2.92;;;2.60;;
48805;SDS011;34625;47.176;27.548;2023-07-20T11:54:34;4.85;;;3.13;;
48805;SDS011;34625;47.176;27.548;2023-07-20T11:57:01;2.97;;;2.40;;
48805;SDS011;34625;47.176;27.548;2023-07-20T11:59:28;3.45;;;2.20;;
48805;SDS011;34625;47.176;27.548;2023-07-20T12:01:54;5.72;;;2.40;;
48805;SDS011;34625;47.176;27.548;2023-07-20T12:04:22;2.40;;;2.05;;
48805;SDS011;34625;47.176;27.548;2023-07-20T12:06:48;4.80;;;2.83;;
48805;SDS011;34625;47.176;27.548;2023-07-20T12:09:15;2.53;;;2.30;;
48805;SDS011;34625;47.176;27.548;2023-07-20T12:11:43;4.00;;;2.10;;
48805;SDS011;34625;47.176;27.548;2023-07-20T12:14:10;3.33;;;2.67;;
48805;SDS011;34625;47.176;27.548;2023-07-20T12:16:37;3.83;;;2.63;;
48805;SDS011;34625;47.176;27.548;2023-07-20T12:19:04;6.53;;;2.72;;
48805;SDS011;34625;47.176;27.548;2023-07-20T12:21:35;3.72;;;3.08;;
48805;SDS011;34625;47.176;27.548;2023-07-20T12:24:03;3.53;;;2.85;;
48805;SDS011;34625;47.176;27.548;2023-07-20T12:26:29;4.82;;;3.05;;
48805;SDS011;34625;47.176;27.548;2023-07-20T12:28:56;4.70;;;2.70;;
48805;SDS011;34625;47.176;27.548;2023-07-20T12:31:23;4.32;;;2.38;;
48805;SDS011;34625;47.176;27.548;2023-07-20T12:33:50;8.00;;;2.15;;
48805;SDS011;34625;47.176;27.548;2023-07-20T12:36:17;3.22;;;2.28;;
48805;SDS011;34625;47.176;27.548;2023-07-20T12:38:44;4.63;;;2.70;;
48805;SDS011;34625;47.176;27.548;2023-07-20T12:41:10;3.13;;;2.10;;
48805;SDS011;34625;47.176;27.548;2023-07-20T12:43:41;3.25;;;2.55;;
48805;SDS011;34625;47.176;27.548;2023-07-20T12:46:07;4.05;;;2.78;;
48805;SDS011;34625;47.176;27.548;2023-07-20T12:48:35;3.45;;;2.28;;
48805;SDS011;34625;47.176;27.548;2023-07-20T12:51:02;3.08;;;2.38;;
48805;SDS011;34625;47.176;27.548;2023-07-20T12:53:30;5.00;;;2.45;;
48805;SDS011;34625;47.176;27.548;2023-07-20T12:55:57;3.83;;;2.50;;
48805;SDS011;34625;47.176;27.548;2023-07-20T12:58:24;4.00;;;2.55;;
48805;SDS011;34625;47.176;27.548;2023-07-20T13:00:50;2.65;;;2.42;;
48805;SDS011;34625;47.176;27.548;2023-07-20T13:03:17;2.78;;;2.13;;
48805;SDS011;34625;47.176;27.548;2023-07-20T13:05:45;2.15;;;1.85;;
48805;SDS011;34625;47.176;27.548;2023-07-20T13:08:11;2.92;;;2.13;;
48805;SDS011;34625;47.176;27.548;2023-07-20T13:10:37;2.63;;;2.20;;
48805;SDS011;34625;47.176;27.548;2023-07-20T13:13:04;2.67;;;2.13;;
48805;SDS011;34625;47.176;27.548;2023-07-20T13:15:31;3.28;;;2.58;;
48805;SDS011;34625;47.176;27.548;2023-07-20T13:17:58;2.72;;;2.22;;
48805;SDS011;34625;47.176;27.548;2023-07-20T13:20:25;2.70;;;2.25;;
48805;SDS011;34625;47.176;27.548;2023-07-20T13:22:51;3.30;;;2.25;;
48805;SDS011;34625;47.176;27.548;2023-07-20T13:25:17;2.78;;;2.47;;
48805;SDS011;34625;47.176;27.548;2023-07-20T13:27:46;3.28;;;2.65;;
48805;SDS011;34625;47.176;27.548;2023-07-20T13:30:13;2.83;;;2.53;;
48805;SDS011;34625;47.176;27.548;2023-07-20T13:32:44;3.40;;;2.50;;
48805;SDS011;34625;47.176;27.548;2023-07-20T13:35:11;3.45;;;2.22;;
48805;SDS011;34625;47.176;27.548;2023-07-20T13:37:37;3.50;;;2.42;;
48805;SDS011;34625;47.176;27.548;2023-07-20T13:40:04;3.97;;;2.75;;
48805;SDS011;34625;47.176;27.548;2023-07-20T13:42:31;3.40;;;2.10;;
48805;SDS011;34625;47.176;27.548;2023-07-20T13:44:57;2.40;;;2.17;;
48805;SDS011;34625;47.176;27.548;2023-07-20T13:47:23;3.15;;;2.10;;
48805;SDS011;34625;47.176;27.548;2023-07-20T13:49:49;3.33;;;2.80;;
48805;SDS011;34625;47.176;27.548;2023-07-20T13:52:15;1.70;;;1.60;;
48805;SDS011;34625;47.176;27.548;2023-07-20T13:54:42;3.95;;;2.88;;
48805;SDS011;34625;47.176;27.548;2023-07-20T13:57:08;3.08;;;2.47;;
48805;SDS011;34625;47.176;27.548;2023-07-20T13:59:34;4.13;;;2.80;;
48805;SDS011;34625;47.176;27.548;2023-07-20T14:02:00;5.85;;;2.45;;
48805;SDS011;34625;47.176;27.548;2023-07-20T14:04:26;2.22;;;1.80;;
48805;SDS011;34625;47.176;27.548;2023-07-20T14:06:52;3.38;;;2.35;;
48805;SDS011;34625;47.176;27.548;2023-07-20T14:09:18;2.90;;;1.98;;
48805;SDS011;34625;47.176;27.548;2023-07-20T14:11:44;4.47;;;2.50;;
48805;SDS011;34625;47.176;27.548;2023-07-20T14:14:10;5.72;;;2.17;;
48805;SDS011;34625;47.176;27.548;2023-07-20T14:16:36;4.20;;;2.33;;
48805;SDS011;34625;47.176;27.548;2023-07-20T14:19:02;5.28;;;3.15;;
48805;SDS011;34625;47.176;27.548;2023-07-20T14:21:30;3.33;;;2.28;;
48805;SDS011;34625;47.176;27.548;2023-07-20T14:23:56;2.95;;;1.92;;
48805;SDS011;34625;47.176;27.548;2023-07-20T14:26:23;2.08;;;1.85;;
48805;SDS011;34625;47.176;27.548;2023-07-20T14:28:49;4.53;;;2.40;;
48805;SDS011;34625;47.176;27.548;2023-07-20T14:31:16;3.55;;;2.25;;
48805;SDS011;34625;47.176;27.548;2023-07-20T14:33:41;3.97;;;2.83;;
48805;SDS011;34625;47.176;27.548;2023-07-20T14:36:08;4.63;;;2.95;;
48805;SDS011;34625;47.176;27.548;2023-07-20T14:38:34;3.33;;;2.70;;
48805;SDS011;34625;47.176;27.548;2023-07-20T14:41:01;3.55;;;2.10;;
48805;SDS011;34625;47.176;27.548;2023-07-20T14:43:27;2.53;;;2.00;;
48805;SDS011;34625;47.176;27.548;2023-07-20T14:45:53;3.03;;;1.90;;
48805;SDS011;34625;47.176;27.548;2023-07-20T14:48:20;1.90;;;1.80;;
48805;SDS011;34625;47.176;27.548;2023-07-20T14:50:46;3.60;;;2.20;;
48805;SDS011;34625;47.176;27.548;2023-07-20T14:53:13;2.60;;;2.03;;
48805;SDS011;34625;47.176;27.548;2023-07-20T14:55:39;2.92;;;2.05;;
48805;SDS011;34625;47.176;27.548;2023-07-20T14:58:05;2.22;;;2.13;;
48805;SDS011;34625;47.176;27.548;2023-07-20T15:00:31;3.85;;;2.40;;
48805;SDS011;34625;47.176;27.548;2023-07-20T15:02:57;2.90;;;2.13;;